Time;durP1;ratioP1;P1;durP2;ratioP2;P2;SDS_P1;SDS_P2;PMS_P1;PMS_P2;Temp;Humidity;BMP_temperature;BMP_pressure;BME280_temperature;BME280_humidity;BME280_pressure;Samples;Min_cycle;Max_cycle;Signal;HPM_P1;HPM_P2
2023/09/06 00:01:36;;;;;;;0.00;0.00;;;17.70;99.90;;;;;;6246375;22;20011;-84
2023/09/06 00:04:03;;;;;;;0.00;0.00;;;;;;;;;;6246163;22;20011;-83
2023/09/06 00:06:28;;;;;;;0.00;0.00;;;17.60;99.90;;;;;;6272945;22;20053;-84
2023/09/06 00:08:54;;;;;;;0.00;0.00;;;18.80;99.90;;;;;;6245697;22;20011;-84
2023/09/06 00:11:20;;;;;;;0.00;0.00;;;;;;;;;;6245731;22;20083;-85
2023/09/06 00:13:45;;;;;;;0.00;0.00;;;17.70;99.90;;;;;;6246837;22;20031;-85
2023/09/06 00:16:12;;;;;;;0.00;0.00;;;;;;;;;;6244877;22;20381;-85
2023/09/06 00:18:38;;;;;;;0.00;0.00;;;17.90;99.90;;;;;;6245063;22;20426;-84
2023/09/06 00:21:05;;;;;;;0.00;0.00;;;;;;;;;;6244255;22;20011;-85
2023/09/06 00:23:32;;;;;;;0.00;0.00;;;17.70;99.90;;;;;;6245617;22;20008;-84
2023/09/06 00:25:58;;;;;;;0.00;0.00;;;17.70;99.90;;;;;;6243573;22;20011;-85
2023/09/06 00:28:24;;;;;;;0.00;0.00;;;;;;;;;;6245021;22;20015;-85
2023/09/06 00:30:50;;;;;;;0.00;0.00;;;17.70;99.90;;;;;;6244318;22;20008;-84
2023/09/06 00:33:15;;;;;;;0.00;0.00;;;17.70;99.90;;;;;;6246602;22;20008;-83
2023/09/06 00:35:41;;;;;;;0.00;0.00;;;17.60;99.90;;;;;;6246679;22;19992;-85
2023/09/06 00:38:08;;;;;;;0.00;0.00;;;;;;;;;;6245870;22;20094;-86
2023/09/06 00:40:37;;;;;;;0.00;0.00;;;17.50;99.90;;;;;;6246313;22;20082;-85
2023/09/06 00:43:07;;;;;;;0.00;0.00;;;18.70;99.90;;;;;;6245772;22;20062;-86
2023/09/06 00:45:42;;;;;;;0.00;0.00;;;17.20;99.90;;;;;;6245141;22;20004;-85
2023/09/06 00:48:08;;;;;;;0.00;0.00;;;17.20;99.90;;;;;;6273762;22;20003;-85
2023/09/06 00:50:35;;;;;;;0.00;0.00;;;17.20;99.90;;;;;;6245808;22;20007;-82
2023/09/06 00:53:04;;;;;;;0.00;0.00;;;17.10;99.90;;;;;;6246000;22;20436;-86
2023/09/06 00:55:30;;;;;;;0.00;0.00;;;;;;;;;;6246118;22;20015;-85
2023/09/06 00:57:56;;;;;;;0.00;0.00;;;;;;;;;;6272300;22;19995;-84
2023/09/06 01:00:25;;;;;;;0.00;0.00;;;;;;;;;;6252552;22;20007;-89
2023/09/06 01:02:50;;;;;;;0.00;0.00;;;16.90;99.90;;;;;;6251159;22;20011;-86
2023/09/06 01:05:19;;;;;;;0.00;0.00;;;16.80;99.90;;;;;;6248543;22;20239;-86
2023/09/06 01:07:48;;;;;;;0.00;0.00;;;16.80;99.90;;;;;;6248220;22;20406;-88
2023/09/06 01:10:14;;;;;;;0.00;0.00;;;16.70;99.90;;;;;;6247415;22;20000;-85
2023/09/06 01:12:39;;;;;;;0.00;0.00;;;16.60;99.90;;;;;;6248245;22;20078;-87
2023/09/06 01:15:05;;;;;;;0.00;0.00;;;16.70;99.90;;;;;;6274796;22;20334;-83
2023/09/06 01:17:35;;;;;;;0.00;0.00;;;16.60;99.90;;;;;;6247621;22;20423;-84
2023/09/06 01:20:20;;;;;;;0.00;0.00;;;16.60;99.90;;;;;;6246765;22;20011;-89
2023/09/06 01:23:19;;;;;;;0.00;0.00;;;16.60;99.90;;;;;;6247528;22;20009;-87
2023/09/06 01:25:45;;;;;;;0.00;0.00;;;16.60;99.90;;;;;;6245456;22;20012;-85
2023/09/06 01:28:11;;;;;;;0.00;0.00;;;16.50;99.90;;;;;;6272077;22;20088;-85
2023/09/06 01:30:37;;;;;;;0.00;0.00;;;16.50;99.90;;;;;;6245564;22;20004;-84
2023/09/06 01:33:03;;;;;;;0.00;0.00;;;;;;;;;;6244337;22;20004;-84
2023/09/06 01:35:29;;;;;;;0.00;0.00;;;;;;;;;;6246379;22;20000;-85
2023/09/06 01:37:56;;;;;;;0.00;0.00;;;;;;;;;;6245763;22;20011;-85
2023/09/06 01:40:26;;;;;;;0.00;0.00;;;;;;;;;;6247480;22;20377;-82
2023/09/06 01:42:52;;;;;;;0.00;0.00;;;;;;;;;;6248070;22;20392;-86
2023/09/06 01:45:18;;;;;;;0.00;0.00;;;16.50;99.90;;;;;;6247410;22;20012;-84
2023/09/06 01:47:46;;;;;;;0.00;0.00;;;16.40;99.90;;;;;;6247477;22;20031;-85
2023/09/06 01:50:12;;;;;;;0.00;0.00;;;16.40;99.90;;;;;;6247129;22;20086;-85
2023/09/06 01:52:40;;;;;;;0.00;0.00;;;16.40;99.90;;;;;;6248072;22;20004;-85
2023/09/06 01:55:08;;;;;;;0.00;0.00;;;16.30;99.90;;;;;;6246803;22;20032;-84
2023/09/06 01:57:33;;;;;;;0.00;0.00;;;16.20;99.90;;;;;;6248171;22;20007;-85
2023/09/06 01:59:59;;;;;;;0.00;0.00;;;;;;;;;;6247718;22;20073;-85
2023/09/06 02:02:25;;;;;;;0.00;0.00;;;;;;;;;;6246798;22;20484;-85
2023/09/06 02:04:50;;;;;;;0.00;0.00;;;16.20;99.90;;;;;;6245785;22;20596;-85
2023/09/06 02:07:16;;;;;;;0.00;0.00;;;16.20;99.90;;;;;;6247544;22;20006;-85
2023/09/06 02:09:42;;;;;;;0.00;0.00;;;;;;;;;;6274428;22;20095;-84
2023/09/06 02:12:08;;;;;;;0.00;0.00;;;;;;;;;;6246410;22;20438;-84
2023/09/06 02:14:34;;;;;;;0.00;0.00;;;16.20;99.90;;;;;;6247208;22;19999;-85
2023/09/06 02:17:00;;;;;;;0.00;0.00;;;;;;;;;;6247109;22;20057;-83
2023/09/06 02:19:26;;;;;;;0.00;0.00;;;16.10;99.90;;;;;;6247587;22;20004;-84
2023/09/06 02:24:20;;;;;;;0.00;0.00;;;;;;;;;;6246415;23;20016;-84
2023/09/06 02:26:46;;;;;;;0.00;0.00;;;;;;;;;;6219707;23;20360;-84
2023/09/06 02:29:12;;;;;;;0.00;0.00;;;;;;;;;;6219906;23;20075;-85
2023/09/06 02:31:38;;;;;;;0.00;0.00;;;;;;;;;;6209271;23;20005;-83
2023/09/06 02:34:04;;;;;;;0.00;0.00;;;;;;;;;;6189805;23;20005;-82
2023/09/06 02:36:30;;;;;;;0.00;0.00;;;16.00;99.90;;;;;;6216229;23;20000;-84
2023/09/06 02:38:57;;;;;;;0.00;0.00;;;16.00;99.90;;;;;;6189446;23;20027;-83
2023/09/06 02:41:23;;;;;;;0.00;0.00;;;;;;;;;;6189651;23;20004;-83
2023/09/06 02:43:49;;;;;;;0.00;0.00;;;;;;;;;;6189615;23;20015;-83
2023/09/06 02:46:15;;;;;;;0.00;0.00;;;;;;;;;;6189477;23;20067;-84
2023/09/06 02:48:46;;;;;;;0.00;0.00;;;16.00;99.90;;;;;;6189307;23;20009;-83
2023/09/06 02:51:15;;;;;;;0.00;0.00;;;16.00;99.90;;;;;;6189061;23;20439;-83
2023/09/06 02:53:45;;;;;;;0.00;0.00;;;;;;;;;;6187533;23;20008;-87
2023/09/06 02:56:13;;;;;;;0.00;0.00;;;16.00;99.90;;;;;;6213785;23;20004;-87
2023/09/06 02:58:41;;;;;;;0.00;0.00;;;;;;;;;;6162419;23;20041;-87
2023/09/06 03:01:07;;;;;;;0.00;0.00;;;16.00;99.90;;;;;;6185499;23;20074;-88
2023/09/06 03:03:33;;;;;;;0.00;0.00;;;;;;;;;;6187600;23;20009;-86
2023/09/06 03:06:03;;;;;;;0.00;0.00;;;16.00;99.90;;;;;;6186762;23;20058;-86
2023/09/06 03:08:29;;;;;;;0.00;0.00;;;16.00;99.90;;;;;;6186633;23;20000;-86
2023/09/06 03:10:55;;;;;;;0.00;0.00;;;;;;;;;;6183958;23;20083;-86
2023/09/06 03:13:21;;;;;;;0.00;0.00;;;16.00;99.90;;;;;;6185760;23;20140;-88
2023/09/06 03:15:51;;;;;;;0.00;0.00;;;16.00;99.90;;;;;;6184276;23;20035;-86
2023/09/06 03:18:17;;;;;;;0.00;0.00;;;;;;;;;;6211240;23;20001;-87
2023/09/06 03:20:43;;;;;;;0.00;0.00;;;;;;;;;;6186670;23;20009;-86
2023/09/06 03:23:19;;;;;;;0.00;0.00;;;15.90;99.90;;;;;;6212266;23;20012;-86
2023/09/06 03:25:47;;;;;;;0.00;0.00;;;15.90;99.90;;;;;;6186859;23;20035;-85
2023/09/06 03:28:13;;;;;;;0.00;0.00;;;15.90;99.90;;;;;;6185867;23;20012;-86
2023/09/06 03:30:39;;;;;;;0.00;0.00;;;;;;;;;;6186690;23;20011;-85
2023/09/06 03:33:06;;;;;;;0.00;0.00;;;15.80;99.90;;;;;;6186205;23;20051;-84
2023/09/06 03:35:31;;;;;;;0.00;0.00;;;15.90;99.90;;;;;;6184802;23;20005;-88
2023/09/06 03:37:58;;;;;;;0.00;0.00;;;;;;;;;;6185393;23;20004;-84
2023/09/06 03:40:25;;;;;;;0.00;0.00;;;15.90;99.90;;;;;;6184728;23;20009;-84
2023/09/06 03:42:54;;;;;;;0.00;0.00;;;16.00;99.90;;;;;;6186677;23;20039;-89
2023/09/06 03:45:24;;;;;;;0.00;0.00;;;15.90;99.90;;;;;;6185951;23;20005;-87
2023/09/06 03:47:54;;;;;;;;;;;15.90;99.90;;;;;;6186944;23;20055;-86
2023/09/06 03:50:24;;;;;;;0.00;0.00;;;15.90;99.90;;;;;;6186089;23;19904;-86
2023/09/06 03:52:53;;;;;;;0.00;0.00;;;;;;;;;;6187015;23;20335;-84
2023/09/06 03:55:19;;;;;;;0.00;0.00;;;;;;;;;;6188645;23;20008;-83
2023/09/06 03:57:46;;;;;;;0.00;0.00;;;;;;;;;;6190761;23;20574;-84
2023/09/06 04:00:26;;;;;;;0.00;0.00;;;;;;;;;;6188858;23;20455;-85
2023/09/06 04:02:56;;;;;;;0.00;0.00;;;15.90;99.90;;;;;;6188798;23;20005;-84
2023/09/06 04:05:25;;;;;;;0.00;0.00;;;15.80;99.90;;;;;;6188279;23;20032;-84
2023/09/06 04:07:56;;;;;;;0.00;0.00;;;15.90;99.90;;;;;;6189172;23;20015;-83
2023/09/06 04:10:23;;;;;;;0.00;0.00;;;15.80;99.90;;;;;;6188769;23;20066;-83
2023/09/06 04:12:50;;;;;;;0.00;0.00;;;15.80;99.90;;;;;;6187815;23;20001;-86
2023/09/06 04:15:21;;;;;;;0.00;0.00;;;;;;;;;;6186105;23;20008;-87
2023/09/06 04:17:47;;;;;;;0.00;0.00;;;;;;;;;;6187263;23;20446;-87
2023/09/06 04:20:19;;;;;;;0.00;0.00;;;;;;;;;;6186509;23;20004;-84
2023/09/06 04:22:46;;;;;;;0.00;0.00;;;15.80;99.90;;;;;;6192728;23;20106;-84
2023/09/06 04:25:15;;;;;;;0.00;0.00;;;15.80;99.90;;;;;;6210792;23;20016;-86
2023/09/06 04:27:40;;;;;;;0.00;0.00;;;15.80;99.90;;;;;;6210873;23;20016;-86
2023/09/06 04:30:08;;;;;;;0.00;0.00;;;15.80;99.90;;;;;;6211469;23;20013;-87
2023/09/06 04:32:35;;;;;;;0.00;0.00;;;15.70;99.90;;;;;;6209258;23;20024;-87
2023/09/06 04:35:01;;;;;;;0.00;0.00;;;15.80;99.90;;;;;;6210517;23;20036;-87
2023/09/06 04:37:26;;;;;;;0.00;0.00;;;;;;;;;;6212033;23;20015;-87
2023/09/06 04:39:53;;;;;;;0.00;0.00;;;;;;;;;;6212211;23;19997;-89
2023/09/06 04:42:19;;;;;;;0.00;0.00;;;15.60;99.90;;;;;;6210686;23;20082;-87
2023/09/06 04:44:45;;;;;;;0.00;0.00;;;;;;;;;;6210793;23;20391;-86
2023/09/06 04:47:14;;;;;;;0.00;0.00;;;;;;;;;;6209118;23;19997;-86
2023/09/06 04:49:45;;;;;;;0.00;0.00;;;;;;;;;;6210938;23;20032;-85
2023/09/06 04:52:11;;;;;;;0.00;0.00;;;15.50;99.90;;;;;;6210330;23;20353;-87
2023/09/06 04:54:37;;;;;;;0.00;0.00;;;;;;;;;;6211340;23;20007;-84
2023/09/06 04:57:03;;;;;;;0.00;0.00;;;;;;;;;;6210607;23;20487;-85
2023/09/06 04:59:31;;;;;;;0.00;0.00;;;;;;;;;;6211178;23;20008;-86
2023/09/06 05:01:57;;;;;;;0.00;0.00;;;15.50;99.90;;;;;;6211772;23;20057;-86
2023/09/06 05:04:23;;;;;;;0.00;0.00;;;;;;;;;;6211907;23;20008;-86
2023/09/06 05:06:48;;;;;;;0.00;0.00;;;15.50;99.90;;;;;;6213617;23;20063;-84
2023/09/06 05:09:15;;;;;;;0.00;0.00;;;;;;;;;;6213878;23;20000;-84
2023/09/06 05:11:41;;;;;;;0.00;0.00;;;15.50;99.90;;;;;;6215544;23;20076;-84
2023/09/06 05:14:07;;;;;;;0.00;0.00;;;15.50;99.90;;;;;;6215905;23;20024;-84
2023/09/06 05:16:32;;;;;;;0.00;0.00;;;15.50;99.90;;;;;;6215729;23;20096;-84
2023/09/06 05:18:58;;;;;;;0.00;0.00;;;15.50;99.90;;;;;;6215766;23;20439;-84
2023/09/06 05:21:24;;;;;;;0.00;0.00;;;;;;;;;;6215477;23;20420;-84
2023/09/06 05:23:50;;;;;;;0.00;0.00;;;;;;;;;;6215440;23;20012;-84
2023/09/06 05:26:15;;;;;;;0.00;0.00;;;;;;;;;;6215449;23;20091;-84
2023/09/06 05:28:42;;;;;;;0.00;0.00;;;;;;;;;;6215866;23;20004;-84
2023/09/06 05:31:09;;;;;;;0.00;0.00;;;;;;;;;;6215285;23;20001;-84
2023/09/06 05:33:34;;;;;;;0.00;0.00;;;15.60;99.90;;;;;;6215520;23;20344;-84
2023/09/06 05:36:00;;;;;;;0.00;0.00;;;;;;;;;;6215468;23;20007;-84
2023/09/06 05:38:26;;;;;;;0.00;0.00;;;;;;;;;;6215455;23;20008;-84
2023/09/06 05:40:53;;;;;;;0.00;0.00;;;;;;;;;;6215421;23;20005;-84
2023/09/06 05:43:18;;;;;;;0.00;0.00;;;15.70;99.90;;;;;;6215659;23;20335;-85
2023/09/06 05:45:44;;;;;;;0.00;0.00;;;;;;;;;;6215162;23;20004;-84
2023/09/06 05:48:10;;;;;;;0.00;0.00;;;;;;;;;;6215480;23;20056;-85
2023/09/06 05:50:36;;;;;;;0.00;0.00;;;;;;;;;;6215324;23;20009;-83
2023/09/06 05:53:02;;;;;;;0.00;0.00;;;;;;;;;;6215379;23;20332;-85
2023/09/06 05:55:31;;;;;;;0.00;0.00;;;;;;;;;;6215360;23;20051;-85
2023/09/06 05:58:10;;;;;;;0.00;0.00;;;15.80;99.90;;;;;;6212581;23;20000;-85
2023/09/06 06:00:36;;;;;;;0.00;0.00;;;;;;;;;;6212784;23;20012;-87
2023/09/06 06:03:02;;;;;;;0.00;0.00;;;;;;;;;;6211115;23;20048;-87
2023/09/06 06:05:28;;;;;;;0.00;0.00;;;;;;;;;;6213283;23;20000;-85
2023/09/06 06:07:57;;;;;;;0.00;0.00;;;15.90;99.90;;;;;;6212556;23;20088;-87
2023/09/06 06:10:23;;;;;;;0.00;0.00;;;;;;;;;;6212368;23;20004;-88
2023/09/06 06:12:49;;;;;;;0.00;0.00;;;;;;;;;;6213337;23;20051;-82
2023/09/06 06:15:15;;;;;;;0.00;0.00;;;16.10;99.90;;;;;;6212899;23;20004;-87
2023/09/06 06:17:42;;;;;;;0.00;0.00;;;16.10;99.90;;;;;;6213732;23;20011;-89
2023/09/06 06:20:09;;;;;;;0.00;0.00;;;16.20;99.90;;;;;;6214481;23;20001;-89
2023/09/06 06:22:39;;;;;;;0.00;0.00;;;16.20;99.90;;;;;;6212891;23;20451;-89
2023/09/06 06:25:05;;;;;;;;;;;16.20;99.90;;;;;;6212638;23;20018;-89
2023/09/06 06:27:31;;;;;;;0.00;0.00;;;;;;;;;;6213835;23;19970;-91
2023/09/06 06:29:57;;;;;;;0.00;0.00;;;16.30;99.90;;;;;;6213884;23;20024;-86
2023/09/06 06:32:23;;;;;;;0.00;0.00;;;;;;;;;;6214715;23;20320;-86
2023/09/06 06:34:51;;;;;;;0.00;0.00;;;;;;;;;;6213546;23;20084;-87
2023/09/06 06:37:17;;;;;;;0.00;0.00;;;;;;;;;;6212066;23;20067;-84
2023/09/06 06:39:43;;;;;;;0.00;0.00;;;;;;;;;;6211619;23;20001;-90
2023/09/06 06:42:08;;;;;;;0.00;0.00;;;16.50;99.90;;;;;;6208329;23;20011;-87
2023/09/06 06:44:34;;;;;;;0.00;0.00;;;16.80;99.90;;;;;;6211104;23;20009;-91
2023/09/06 06:47:00;;;;;;;0.00;0.00;;;;;;;;;;6211430;23;20084;-88
2023/09/06 06:49:27;;;;;;;0.00;0.00;;;17.00;99.90;;;;;;6210142;23;20004;-88
2023/09/06 06:51:53;;;;;;;0.00;0.00;;;;;;;;;;6210799;23;20435;-88
2023/09/06 06:54:19;;;;;;;0.00;0.00;;;;;;;;;;6207832;23;20008;-88
2023/09/06 06:56:45;;;;;;;0.00;0.00;;;17.10;99.90;;;;;;6211477;23;20008;-88
2023/09/06 06:59:11;;;;;;;0.00;0.00;;;;;;;;;;6211347;23;20001;-87
2023/09/06 07:01:37;;;;;;;0.00;0.00;;;17.30;99.90;;;;;;6211760;23;20004;-88
2023/09/06 07:04:04;;;;;;;0.00;0.00;;;;;;;;;;6211100;23;20096;-85
2023/09/06 07:06:30;;;;;;;0.00;0.00;;;;;;;;;;6212969;23;20004;-87
2023/09/06 07:08:57;;;;;;;0.00;0.00;;;;;;;;;;6211668;23;20087;-87
2023/09/06 07:11:24;;;;;;;0.00;0.00;;;;;;;;;;6211311;23;20039;-86
2023/09/06 07:13:51;;;;;;;0.00;0.00;;;17.90;99.90;;;;;;6210954;23;20130;-87
2023/09/06 07:16:18;;;;;;;0.00;0.00;;;17.80;99.90;;;;;;6211879;23;20008;-84
2023/09/06 07:18:45;;;;;;;0.00;0.00;;;17.90;99.90;;;;;;6211650;23;20424;-90
2023/09/06 07:21:11;;;;;;;0.00;0.00;;;18.00;99.90;;;;;;6211047;23;20499;-88
2023/09/06 07:23:37;;;;;;;0.00;0.00;;;18.10;99.90;;;;;;6210832;23;20094;-87
2023/09/06 07:26:04;;;;;;;0.00;0.00;;;;;;;;;;6212193;23;20004;-86
2023/09/06 07:28:44;;;;;;;0.00;0.00;;;18.30;99.90;;;;;;6210743;23;20099;-87
2023/09/06 07:31:10;;;;;;;0.00;0.00;;;18.50;99.90;;;;;;6211802;23;20030;-88
2023/09/06 07:33:36;;;;;;;0.00;0.00;;;18.50;99.90;;;;;;6210709;23;20087;-88
2023/09/06 07:36:02;;;;;;;0.00;0.00;;;18.60;99.90;;;;;;6211982;23;20001;-86
2023/09/06 07:38:29;;;;;;;0.00;0.00;;;;;;;;;;6211373;23;20012;-87
2023/09/06 07:41:07;;;;;;;0.00;0.00;;;18.60;99.90;;;;;;6211952;23;20059;-87
2023/09/06 07:43:35;;;;;;;0.00;0.00;;;18.70;99.90;;;;;;6211042;23;20004;-85
2023/09/06 07:46:02;;;;;;;0.00;0.00;;;18.80;99.90;;;;;;6212051;23;20032;-88
2023/09/06 07:48:30;;;;;;;0.00;0.00;;;19.00;99.90;;;;;;6213197;23;20005;-87
2023/09/06 07:50:57;;;;;;;0.00;0.00;;;19.30;99.90;;;;;;6212868;23;20004;-87
2023/09/06 07:53:26;;;;;;;0.00;0.00;;;19.40;99.90;;;;;;6211129;23;20009;-89
2023/09/06 07:55:52;;;;;;;0.00;0.00;;;;;;;;;;6213152;23;20008;-85
2023/09/06 07:58:18;;;;;;;0.00;0.00;;;19.40;99.90;;;;;;6211602;23;20005;-88
2023/09/06 08:00:44;;;;;;;0.00;0.00;;;19.40;99.90;;;;;;6212394;23;20013;-87
2023/09/06 08:03:11;;;;;;;0.00;0.00;;;19.50;99.90;;;;;;6210699;23;20027;-86
2023/09/06 08:05:37;;;;;;;0.00;0.00;;;;;;;;;;6211987;23;20039;-85
2023/09/06 08:08:04;;;;;;;0.00;0.00;;;19.60;99.90;;;;;;6211240;23;20004;-84
2023/09/06 08:10:30;;;;;;;0.00;0.00;;;19.70;99.90;;;;;;6211854;23;20313;-87
2023/09/06 08:12:55;;;;;;;0.00;0.00;;;19.70;99.90;;;;;;6211716;23;20012;-88
2023/09/06 08:15:23;;;;;;;0.00;0.00;;;;;;;;;;6212131;23;19997;-88
2023/09/06 08:17:48;;;;;;;0.00;0.00;;;20.00;99.90;;;;;;6211760;23;20004;-88
2023/09/06 08:20:15;;;;;;;0.00;0.00;;;20.10;99.90;;;;;;6212242;23;20458;-86
2023/09/06 08:25:18;;;;;;;0.00;0.00;;;20.20;99.90;;;;;;6210066;23;20021;-85
2023/09/06 08:27:44;;;;;;;0.00;0.00;;;20.50;99.90;;;;;;6187777;23;20005;-85
2023/09/06 08:30:15;;;;;;;0.00;0.00;;;21.20;99.90;;;;;;6187425;23;20012;-83
2023/09/06 08:32:42;;;;;;;0.00;0.00;;;20.60;99.90;;;;;;6187409;23;20439;-84
2023/09/06 08:35:09;;;;;;;0.00;0.00;;;20.70;99.90;;;;;;6186855;23;20011;-84
2023/09/06 08:37:35;;;;;;;0.00;0.00;;;20.70;99.90;;;;;;6187530;23;20001;-85
2023/09/06 08:40:05;;;;;;;0.00;0.00;;;21.60;99.90;;;;;;6186798;23;20020;-85
2023/09/06 08:42:33;;;;;;;0.00;0.00;;;20.90;99.90;;;;;;6187140;23;20005;-84
2023/09/06 08:45:03;;;;;;;0.00;0.00;;;21.20;99.90;;;;;;6187373;23;20009;-86
2023/09/06 08:47:30;;;;;;;0.00;0.00;;;21.30;99.90;;;;;;6213612;23;20001;-85
2023/09/06 08:49:56;;;;;;;0.00;0.00;;;21.20;99.90;;;;;;6187893;23;20462;-85
2023/09/06 08:52:22;;;;;;;0.00;0.00;;;21.20;99.90;;;;;;6187704;23;20000;-85
2023/09/06 08:54:51;;;;;;;0.00;0.00;;;;;;;;;;6187118;23;20012;-85
2023/09/06 08:57:17;;;;;;;0.00;0.00;;;21.30;99.90;;;;;;6187235;23;20005;-85
2023/09/06 08:59:43;;;;;;;0.00;0.00;;;21.40;99.90;;;;;;6187386;23;20096;-84
2023/09/06 09:02:14;;;;;;;0.00;0.00;;;21.40;99.90;;;;;;6187691;23;20012;-85
2023/09/06 09:04:42;;;;;;;0.00;0.00;;;21.80;99.90;;;;;;6214404;23;20079;-85
2023/09/06 09:07:12;;;;;;;0.00;0.00;;;21.90;99.90;;;;;;6187397;23;20329;-85
2023/09/06 09:10:01;;;;;;;0.00;0.00;;;21.60;99.90;;;;;;6187774;23;20008;-84
2023/09/06 09:12:31;;;;;;;0.00;0.00;;;21.70;99.90;;;;;;6187702;23;20009;-83
2023/09/06 09:14:57;;;;;;;0.00;0.00;;;21.80;99.90;;;;;;6187556;23;20011;-85
2023/09/06 09:17:24;;;;;;;0.00;0.00;;;22.80;99.90;;;;;;6187282;23;20001;-86
2023/09/06 09:19:54;;;;;;;0.00;0.00;;;21.90;99.90;;;;;;6213509;23;20000;-85
2023/09/06 09:22:28;;;;;;;0.00;0.00;;;23.50;99.90;;;;;;6187539;23;20522;-85
2023/09/06 09:25:03;;;;;;;0.00;0.00;;;23.80;99.90;;;;;;6187195;23;20415;-85
2023/09/06 09:27:32;;;;;;;0.00;0.00;;;22.40;99.90;;;;;;6186720;23;20005;-84
2023/09/06 09:30:06;;;;;;;0.00;0.00;;;22.50;99.90;;;;;;6184977;23;20005;-85
2023/09/06 09:32:32;;;;;;;0.00;0.00;;;22.60;99.90;;;;;;6186560;23;20331;-84
2023/09/06 09:34:58;;;;;;;0.00;0.00;;;23.30;99.90;;;;;;6186219;23;20000;-84
2023/09/06 09:37:24;;;;;;;0.00;0.00;;;22.70;99.90;;;;;;6187071;23;20039;-84
2023/09/06 09:39:50;;;;;;;0.00;0.00;;;;;;;;;;6187070;23;20100;-85
2023/09/06 09:42:15;;;;;;;0.00;0.00;;;22.90;99.90;;;;;;6187217;23;20007;-84
2023/09/06 09:44:41;;;;;;;0.00;0.00;;;;;;;;;;6187356;23;20011;-85
2023/09/06 09:47:14;;;;;;;0.00;0.00;;;22.90;99.90;;;;;;6187252;23;20083;-84
2023/09/06 09:53:15;;;;;;;0.00;0.00;;;23.60;99.90;;;;;;6219660;22;20027;-89
2023/09/06 09:55:46;;;;;;;0.00;0.00;;;23.60;99.90;;;;;;6189589;23;20604;-86
2023/09/06 09:58:12;;;;;;;0.00;0.00;;;;;;;;;;6189417;23;20336;-88
2023/09/06 10:00:41;;;;;;;0.00;0.00;;;23.80;99.90;;;;;;6191314;23;20005;-87
2023/09/06 10:03:08;;;;;;;0.00;0.00;;;23.80;99.90;;;;;;6191087;23;20032;-87
2023/09/06 10:05:35;;;;;;;0.00;0.00;;;24.00;99.90;;;;;;6190316;23;20088;-88
2023/09/06 10:08:05;;;;;;;0.00;0.00;;;25.00;99.90;;;;;;6191334;23;20083;-87
2023/09/06 10:10:32;;;;;;;;;;;24.00;99.90;;;;;;6217582;23;20005;-86
2023/09/06 10:13:04;;;;;;;0.00;0.00;;;24.20;99.90;;;;;;6190208;23;19907;-88
2023/09/06 10:15:32;;;;;;;0.00;0.00;;;;;;;;;;6190229;23;20060;-84
2023/09/06 10:17:59;;;;;;;0.00;0.00;;;;;;;;;;6189861;23;20412;-85
2023/09/06 10:20:26;;;;;;;0.00;0.00;;;24.40;99.90;;;;;;6189240;23;20008;-86
2023/09/06 10:22:56;;;;;;;0.00;0.00;;;24.40;99.90;;;;;;6188455;23;20013;-86
2023/09/06 10:25:23;;;;;;;0.00;0.00;;;24.60;99.90;;;;;;6188969;23;20016;-84
2023/09/06 10:27:51;;;;;;;0.00;0.00;;;24.60;99.90;;;;;;6188893;23;20524;-84
2023/09/06 10:30:28;;;;;;;0.00;0.00;;;25.20;99.90;;;;;;6188458;23;20001;-84
2023/09/06 10:32:54;;;;;;;0.00;0.00;;;25.10;99.90;;;;;;6187835;23;20008;-85
2023/09/06 10:35:30;;;;;;;0.00;0.00;;;25.40;99.90;;;;;;6188677;23;20000;-85
2023/09/06 10:38:18;;;;;;;0.00;0.00;;;24.90;99.90;;;;;;6188655;23;20004;-85
2023/09/06 10:40:49;;;;;;;0.00;0.00;;;24.90;99.90;;;;;;6188444;23;20062;-85
2023/09/06 10:43:20;;;;;;;0.00;0.00;;;24.80;99.90;;;;;;6188853;23;20084;-87
2023/09/06 10:46:27;;;;;;;0.00;0.00;;;25.00;99.90;;;;;;6186899;23;20055;-86
2023/09/06 10:49:12;;;;;;;0.00;0.00;;;25.10;99.90;;;;;;6188668;23;20005;-85
2023/09/06 10:51:58;;;;;;;0.00;0.00;;;25.20;99.90;;;;;;6214524;23;20500;-85
2023/09/06 10:54:25;;;;;;;0.00;0.00;;;25.30;99.90;;;;;;6188860;23;20005;-86
2023/09/06 10:56:57;;;;;;;0.00;0.00;;;25.40;99.90;;;;;;6188568;23;20001;-86
2023/09/06 10:59:22;;;;;;;0.00;0.00;;;25.20;99.90;;;;;;6188936;23;20027;-85
2023/09/06 11:02:15;;;;;;;0.00;0.00;;;25.30;99.90;;;;;;6187823;23;20005;-84
2023/09/06 11:04:41;;;;;;;0.00;0.00;;;25.40;99.90;;;;;;6188868;23;20084;-83
2023/09/06 11:07:10;;;;;;;0.00;0.00;;;25.40;99.90;;;;;;6188770;23;20382;-85
2023/09/06 11:09:50;;;;;;;0.00;0.00;;;25.50;99.90;;;;;;6187206;23;20087;-85
2023/09/06 11:12:16;;;;;;;0.00;0.00;;;25.50;99.90;;;;;;6186820;23;20009;-86
2023/09/06 11:14:43;;;;;;;0.00;0.00;;;25.40;99.90;;;;;;6181887;23;20094;-86
2023/09/06 11:17:22;;;;;;;0.00;0.00;;;25.60;99.90;;;;;;6186433;23;20005;-85
2023/09/06 11:19:48;;;;;;;0.00;0.00;;;;;;;;;;6186470;23;20000;-85
2023/09/06 11:22:16;;;;;;;0.00;0.00;;;;;;;;;;6187808;23;20008;-86
2023/09/06 11:24:42;;;;;;;0.00;0.00;;;;;;;;;;6186729;23;20017;-85
2023/09/06 11:27:29;;;;;;;0.00;0.00;;;25.80;99.90;;;;;;6185813;23;20462;-85
2023/09/06 11:30:16;;;;;;;0.00;0.00;;;25.80;99.90;;;;;;6183341;23;20283;-85
2023/09/06 11:32:45;;;;;;;0.00;0.00;;;25.80;99.90;;;;;;6186674;23;20009;-85
2023/09/06 11:35:11;;;;;;;0.00;0.00;;;25.80;99.90;;;;;;6187352;23;20420;-85
2023/09/06 11:37:41;;;;;;;0.00;0.00;;;26.00;99.60;;;;;;6186872;23;20087;-85
2023/09/06 11:40:13;;;;;;;0.00;0.00;;;26.00;99.80;;;;;;6187055;23;20433;-85
2023/09/06 11:42:44;;;;;;;0.00;0.00;;;26.10;99.90;;;;;;6186968;23;20424;-85
2023/09/06 11:45:12;;;;;;;0.00;0.00;;;26.00;99.90;;;;;;6188085;23;20005;-85
2023/09/06 11:47:39;;;;;;;0.00;0.00;;;;;;;;;;6187311;23;20495;-85
2023/09/06 11:50:08;;;;;;;0.00;0.00;;;26.20;99.90;;;;;;6185228;23;20005;-84
2023/09/06 11:52:34;;;;;;;0.00;0.00;;;26.30;99.90;;;;;;6186785;23;20375;-85
2023/09/06 11:55:08;;;;;;;0.00;0.00;;;26.30;99.90;;;;;;6186287;23;20000;-85
2023/09/06 11:57:37;;;;;;;0.00;0.00;;;23.60;99.70;;;;;;6187204;23;20005;-85
2023/09/06 12:00:19;;;;;;;0.00;0.00;;;27.60;99.90;;;;;;6187748;23;20054;-86
2023/09/06 12:02:47;;;;;;;0.00;0.00;;;26.70;99.90;;;;;;6214095;23;20001;-85
2023/09/06 12:05:16;;;;;;;0.00;0.00;;;;;;;;;;6187644;23;20004;-85
2023/09/06 12:07:43;;;;;;;0.00;0.00;;;;;;;;;;6187790;23;20423;-85
2023/09/06 12:10:09;;;;;;;0.00;0.00;;;26.90;99.90;;;;;;6187153;23;20031;-85
2023/09/06 12:12:42;;;;;;;0.00;0.00;;;27.00;99.90;;;;;;6187301;23;20058;-86
2023/09/06 12:15:14;;;;;;;0.00;0.00;;;27.00;99.90;;;;;;6186945;23;20175;-87
2023/09/06 12:17:45;;;;;;;0.00;0.00;;;27.10;99.90;;;;;;6187942;23;20024;-86
2023/09/06 12:20:27;;;;;;;0.00;0.00;;;28.00;99.90;;;;;;6187573;23;20083;-85
2023/09/06 12:22:53;;;;;;;0.00;0.00;;;;;;;;;;6187464;23;20011;-85
2023/09/06 12:25:19;;;;;;;0.00;0.00;;;27.10;99.90;;;;;;6187536;23;20091;-85
2023/09/06 12:27:47;;;;;;;0.00;0.00;;;27.10;99.90;;;;;;6213208;23;20004;-84
2023/09/06 12:30:16;;;;;;;0.00;0.00;;;;;;;;;;6187334;23;20005;-84
2023/09/06 12:32:42;;;;;;;0.00;0.00;;;27.00;99.90;;;;;;6187366;23;20026;-84
2023/09/06 12:35:09;;;;;;;0.00;0.00;;;27.00;99.90;;;;;;6187510;23;19996;-84
2023/09/06 12:37:39;;;;;;;0.00;0.00;;;27.20;99.90;;;;;;6214266;23;20305;-84
2023/09/06 12:40:10;;;;;;;0.00;0.00;;;27.10;99.90;;;;;;6187511;23;20054;-84
2023/09/06 12:42:45;;;;;;;0.00;0.00;;;27.30;99.60;;;;;;6184057;23;20000;-85
2023/09/06 12:45:27;;;;;;;0.00;0.00;;;27.30;99.90;;;;;;6187604;23;20008;-87
2023/09/06 12:47:53;;;;;;;0.00;0.00;;;27.30;99.90;;;;;;6187339;23;19997;-85
2023/09/06 12:50:20;;;;;;;0.00;0.00;;;27.50;98.60;;;;;;6186914;23;20028;-84
2023/09/06 12:52:46;;;;;;;0.00;0.00;;;;;;;;;;6186640;23;20004;-86
2023/09/06 12:55:11;;;;;;;0.00;0.00;;;27.60;98.50;;;;;;6187116;23;20004;-84
2023/09/06 12:57:37;;;;;;;0.00;0.00;;;;;;;;;;6187483;23;20008;-85
2023/09/06 13:00:05;;;;;;;0.00;0.00;;;27.50;99.00;;;;;;6213349;23;19997;-85
2023/09/06 13:02:33;;;;;;;0.00;0.00;;;27.50;99.60;;;;;;6187792;23;20083;-86
2023/09/06 13:05:00;;;;;;;0.00;0.00;;;;;;;;;;6187429;23;20008;-85
2023/09/06 13:07:26;;;;;;;0.00;0.00;;;27.50;99.20;;;;;;6188072;23;20009;-85
2023/09/06 13:09:52;;;;;;;0.00;0.00;;;;;;;;;;6187481;23;20309;-85
2023/09/06 13:12:18;;;;;;;0.00;0.00;;;28.00;98.10;;;;;;6186769;23;20087;-84
2023/09/06 13:14:44;;;;;;;0.00;0.00;;;;;;;;;;6183294;23;20063;-85
2023/09/06 13:17:09;;;;;;;0.00;0.00;;;;;;;;;;6186189;23;20009;-84
2023/09/06 13:19:35;;;;;;;0.00;0.00;;;28.10;98.10;;;;;;6186916;23;20008;-85
2023/09/06 13:22:00;;;;;;;0.00;0.00;;;28.70;98.80;;;;;;6186884;23;20004;-85
2023/09/06 13:24:28;;;;;;;0.00;0.00;;;;;;;;;;6212830;23;20024;-85
2023/09/06 13:26:53;;;;;;;0.00;0.00;;;28.10;98.60;;;;;;6186330;23;20013;-85
2023/09/06 13:29:19;;;;;;;0.00;0.00;;;28.00;98.80;;;;;;6212925;23;20012;-85
2023/09/06 13:31:44;;;;;;;0.00;0.00;;;29.10;99.40;;;;;;6213672;23;20007;-85
2023/09/06 13:34:10;;;;;;;0.00;0.00;;;28.10;98.70;;;;;;6188315;23;19996;-85
2023/09/06 13:36:36;;;;;;;0.00;0.00;;;;;;;;;;6188807;23;20119;-85